sensor_id;sensor_type;location;lat;lon;timestamp;pressure;altitude;pressure_sealevel;temperature;humidity
46756;BME280;32506;52.826;-1.192;2022-09-20T00:01:11;101908.66;;;12.88;45.45
46756;BME280;32506;52.826;-1.192;2022-09-20T00:03:42;101911.09;;;12.83;45.60
46756;BME280;32506;52.826;-1.192;2022-09-20T00:06:13;101913.13;;;12.81;45.49
46756;BME280;32506;52.826;-1.192;2022-09-20T00:08:40;101912.72;;;12.77;45.42
46756;BME280;32506;52.826;-1.192;2022-09-20T00:11:10;101915.75;;;12.74;45.40
46756;BME280;32506;52.826;-1.192;2022-09-20T00:13:37;101908.94;;;12.71;45.17
46756;BME280;32506;52.826;-1.192;2022-09-20T00:16:05;101912.00;;;12.68;45.45
46756;BME280;32506;52.826;-1.192;2022-09-20T00:18:30;101916.94;;;12.65;45.64
46756;BME280;32506;52.826;-1.192;2022-09-20T00:20:56;101915.47;;;12.62;45.78
46756;BME280;32506;52.826;-1.192;2022-09-20T00:23:21;101921.03;;;12.61;46.56
46756;BME280;32506;52.826;-1.192;2022-09-20T00:25:57;101923.09;;;12.58;46.85
46756;BME280;32506;52.826;-1.192;2022-09-20T00:28:23;101919.94;;;12.55;47.26
46756;BME280;32506;52.826;-1.192;2022-09-20T00:30:50;101917.66;;;12.52;47.19
46756;BME280;32506;52.826;-1.192;2022-09-20T00:33:16;101922.19;;;12.51;46.94
46756;BME280;32506;52.826;-1.192;2022-09-20T00:35:42;101911.84;;;12.48;46.93
46756;BME280;32506;52.826;-1.192;2022-09-20T00:38:08;101912.03;;;12.47;46.65
46756;BME280;32506;52.826;-1.192;2022-09-20T00:40:34;101910.56;;;12.44;46.53
46756;BME280;32506;52.826;-1.192;2022-09-20T00:43:00;101910.56;;;12.44;46.85
46756;BME280;32506;52.826;-1.192;2022-09-20T00:45:30;101914.66;;;12.40;46.66
46756;BME280;32506;52.826;-1.192;2022-09-20T00:48:14;101915.69;;;12.39;46.65
46756;BME280;32506;52.826;-1.192;2022-09-20T00:50:53;101916.88;;;12.36;46.82
46756;BME280;32506;52.826;-1.192;2022-09-20T00:53:26;101910.06;;;12.34;46.36
46756;BME280;32506;52.826;-1.192;2022-09-20T00:56:16;101915.63;;;12.32;46.38
46756;BME280;32506;52.826;-1.192;2022-09-20T00:58:50;101920.53;;;12.29;46.30
46756;BME280;32506;52.826;-1.192;2022-09-20T01:01:17;101920.72;;;12.27;46.38
46756;BME280;32506;52.826;-1.192;2022-09-20T01:03:43;101932.66;;;12.24;46.23
46756;BME280;32506;52.826;-1.192;2022-09-20T01:06:12;101928.50;;;12.22;46.35
46756;BME280;32506;52.826;-1.192;2022-09-20T01:08:41;101929.53;;;12.21;46.54
46756;BME280;32506;52.826;-1.192;2022-09-20T01:11:09;101926.22;;;12.19;46.96
46756;BME280;32506;52.826;-1.192;2022-09-20T01:13:35;101931.75;;;12.17;47.10
46756;BME280;32506;52.826;-1.192;2022-09-20T01:16:01;101936.31;;;12.17;46.95
46756;BME280;32506;52.826;-1.192;2022-09-20T01:18:28;101925.13;;;12.13;47.42
46756;BME280;32506;52.826;-1.192;2022-09-20T01:20:55;101928.00;;;12.12;47.79
46756;BME280;32506;52.826;-1.192;2022-09-20T01:26:31;101924.66;;;12.09;47.51
46756;BME280;32506;52.826;-1.192;2022-09-20T01:31:35;101917.03;;;12.06;47.29
46756;BME280;32506;52.826;-1.192;2022-09-20T01:34:11;101914.53;;;12.05;47.18
46756;BME280;32506;52.826;-1.192;2022-09-20T01:43:00;101928.28;;;12.02;46.74
46756;BME280;32506;52.826;-1.192;2022-09-20T01:45:31;101925.00;;;12.00;46.83
46756;BME280;32506;52.826;-1.192;2022-09-20T01:51:10;101927.00;;;11.98;46.54
46756;BME280;32506;52.826;-1.192;2022-09-20T01:56:51;101931.44;;;11.90;46.53
46756;BME280;32506;52.826;-1.192;2022-09-20T02:07:54;101920.47;;;11.85;46.67
46756;BME280;32506;52.826;-1.192;2022-09-20T02:10:30;101923.53;;;11.82;46.40
46756;BME280;32506;52.826;-1.192;2022-09-20T02:18:53;101922.25;;;11.78;46.82
46756;BME280;32506;52.826;-1.192;2022-09-20T02:24:49;101916.22;;;11.76;47.16
46756;BME280;32506;52.826;-1.192;2022-09-20T02:28:37;101913.75;;;11.74;47.23
46756;BME280;32506;52.826;-1.192;2022-09-20T02:33:46;101919.47;;;11.71;47.39
46756;BME280;32506;52.826;-1.192;2022-09-20T02:39:21;101911.44;;;11.71;47.72
46756;BME280;32506;52.826;-1.192;2022-09-20T02:44:51;101908.09;;;11.69;47.70
46756;BME280;32506;52.826;-1.192;2022-09-20T02:52:36;101903.13;;;11.66;48.20
46756;BME280;32506;52.826;-1.192;2022-09-20T02:55:13;101899.66;;;11.66;48.05
46756;BME280;32506;52.826;-1.192;2022-09-20T03:00:28;101895.31;;;11.65;48.11
46756;BME280;32506;52.826;-1.192;2022-09-20T03:03:05;101896.31;;;11.64;48.10
46756;BME280;32506;52.826;-1.192;2022-09-20T03:05:46;101892.81;;;11.63;48.15
46756;BME280;32506;52.826;-1.192;2022-09-20T03:11:07;101896.13;;;11.65;49.08
46756;BME280;32506;52.826;-1.192;2022-09-20T03:27:16;101888.94;;;11.66;49.07
46756;BME280;32506;52.826;-1.192;2022-09-20T03:37:58;101880.69;;;11.67;49.92
46756;BME280;32506;52.826;-1.192;2022-09-20T04:01:37;101863.50;;;11.77;49.44
46756;BME280;32506;52.826;-1.192;2022-09-20T04:04:24;101869.50;;;11.79;49.75
46756;BME280;32506;52.826;-1.192;2022-09-20T04:07:27;101871.16;;;11.80;49.63
46756;BME280;32506;52.826;-1.192;2022-09-20T04:15:30;101862.53;;;11.84;49.58
46756;BME280;32506;52.826;-1.192;2022-09-20T04:18:23;101858.84;;;11.85;49.29
46756;BME280;32506;52.826;-1.192;2022-09-20T04:21:10;101860.50;;;11.86;50.35
46756;BME280;32506;52.826;-1.192;2022-09-20T04:26:21;101857.63;;;11.88;49.55
46756;BME280;32506;52.826;-1.192;2022-09-20T04:28:55;101861.97;;;11.89;49.82
46756;BME280;32506;52.826;-1.192;2022-09-20T04:31:42;101863.66;;;11.90;49.85
46756;BME280;32506;52.826;-1.192;2022-09-20T04:34:32;101862.44;;;11.92;49.10
46756;BME280;32506;52.826;-1.192;2022-09-20T04:37:26;101859.75;;;11.92;49.69
46756;BME280;32506;52.826;-1.192;2022-09-20T04:40:24;101855.22;;;11.93;49.60
46756;BME280;32506;52.826;-1.192;2022-09-20T04:45:32;101847.03;;;11.95;49.13
46756;BME280;32506;52.826;-1.192;2022-09-20T04:48:34;101854.22;;;11.94;49.20
46756;BME280;32506;52.826;-1.192;2022-09-20T04:59:09;101845.31;;;11.93;49.34
46756;BME280;32506;52.826;-1.192;2022-09-20T05:19:05;101866.94;;;11.92;48.53
46756;BME280;32506;52.826;-1.192;2022-09-20T05:21:46;101871.50;;;11.91;48.66
46756;BME280;32506;52.826;-1.192;2022-09-20T05:27:20;101879.72;;;11.90;48.53
46756;BME280;32506;52.826;-1.192;2022-09-20T05:30:02;101882.59;;;11.88;47.99
46756;BME280;32506;52.826;-1.192;2022-09-20T05:32:51;101883.41;;;11.89;48.18
46756;BME280;32506;52.826;-1.192;2022-09-20T05:35:31;101875.75;;;11.86;48.21
46756;BME280;32506;52.826;-1.192;2022-09-20T05:49:30;101895.06;;;11.81;48.05
46756;BME280;32506;52.826;-1.192;2022-09-20T05:52:06;101899.16;;;11.77;47.75
46756;BME280;32506;52.826;-1.192;2022-09-20T05:57:32;101915.59;;;11.74;47.80
46756;BME280;32506;52.826;-1.192;2022-09-20T06:00:13;101921.97;;;11.73;47.63
46756;BME280;32506;52.826;-1.192;2022-09-20T06:02:59;101916.81;;;11.71;47.63
46756;BME280;32506;52.826;-1.192;2022-09-20T06:14:20;101919.66;;;11.70;47.67
46756;BME280;32506;52.826;-1.192;2022-09-20T06:22:23;101920.88;;;11.67;47.83
46756;BME280;32506;52.826;-1.192;2022-09-20T06:27:24;101928.53;;;11.70;48.02
46756;BME280;32506;52.826;-1.192;2022-09-20T06:29:56;101928.72;;;11.69;47.96
46756;BME280;32506;52.826;-1.192;2022-09-20T06:32:23;101926.03;;;11.69;47.97
46756;BME280;32506;52.826;-1.192;2022-09-20T06:34:48;101933.06;;;11.70;47.75
46756;BME280;32506;52.826;-1.192;2022-09-20T06:37:38;101930.19;;;11.71;47.70
46756;BME280;32506;52.826;-1.192;2022-09-20T06:40:34;101934.53;;;11.72;47.83
46756;BME280;32506;52.826;-1.192;2022-09-20T06:43:21;101934.34;;;11.74;47.76
46756;BME280;32506;52.826;-1.192;2022-09-20T06:45:46;101939.50;;;11.75;48.16
46756;BME280;32506;52.826;-1.192;2022-09-20T06:48:13;101938.50;;;11.77;47.87
46756;BME280;32506;52.826;-1.192;2022-09-20T06:50:40;101941.00;;;11.78;48.34
46756;BME280;32506;52.826;-1.192;2022-09-20T06:53:14;101946.97;;;11.80;48.39
46756;BME280;32506;52.826;-1.192;2022-09-20T06:55:40;101937.09;;;11.81;48.60
46756;BME280;32506;52.826;-1.192;2022-09-20T06:58:07;101936.72;;;11.84;48.88
46756;BME280;32506;52.826;-1.192;2022-09-20T07:00:34;101933.84;;;11.85;49.02
46756;BME280;32506;52.826;-1.192;2022-09-20T07:02:59;101934.50;;;11.87;49.40
46756;BME280;32506;52.826;-1.192;2022-09-20T07:05:25;101937.63;;;11.91;50.02
46756;BME280;32506;52.826;-1.192;2022-09-20T07:07:58;101934.78;;;11.92;49.95
46756;BME280;32506;52.826;-1.192;2022-09-20T07:10:27;101940.78;;;11.95;50.11
46756;BME280;32506;52.826;-1.192;2022-09-20T07:13:00;101933.22;;;11.98;50.22
46756;BME280;32506;52.826;-1.192;2022-09-20T07:15:27;101933.84;;;12.00;50.62
46756;BME280;32506;52.826;-1.192;2022-09-20T07:17:53;101940.66;;;12.03;50.73
46756;BME280;32506;52.826;-1.192;2022-09-20T07:20:18;101944.63;;;12.07;50.65
46756;BME280;32506;52.826;-1.192;2022-09-20T07:22:45;101931.88;;;12.09;51.14
46756;BME280;32506;52.826;-1.192;2022-09-20T07:25:11;101937.72;;;12.13;51.69
46756;BME280;32506;52.826;-1.192;2022-09-20T07:27:36;101938.13;;;12.16;51.74
46756;BME280;32506;52.826;-1.192;2022-09-20T07:30:03;101931.38;;;12.20;51.87
46756;BME280;32506;52.826;-1.192;2022-09-20T07:32:28;101937.19;;;12.24;52.04
46756;BME280;32506;52.826;-1.192;2022-09-20T07:34:54;101930.63;;;12.27;52.56
46756;BME280;32506;52.826;-1.192;2022-09-20T07:37:19;101939.94;;;12.31;52.61
46756;BME280;32506;52.826;-1.192;2022-09-20T07:39:45;101944.09;;;12.33;52.82
46756;BME280;32506;52.826;-1.192;2022-09-20T07:42:11;101942.69;;;12.37;52.43
46756;BME280;32506;52.826;-1.192;2022-09-20T07:44:37;101946.66;;;12.41;52.65
46756;BME280;32506;52.826;-1.192;2022-09-20T07:47:07;101945.25;;;12.46;52.38
46756;BME280;32506;52.826;-1.192;2022-09-20T07:49:34;101955.56;;;12.49;52.16
46756;BME280;32506;52.826;-1.192;2022-09-20T07:51:59;101958.72;;;12.52;52.17
46756;BME280;32506;52.826;-1.192;2022-09-20T07:54:25;101960.19;;;12.55;51.99
46756;BME280;32506;52.826;-1.192;2022-09-20T07:56:53;101967.63;;;12.59;52.19
46756;BME280;32506;52.826;-1.192;2022-09-20T07:59:19;101960.25;;;12.62;52.22
46756;BME280;32506;52.826;-1.192;2022-09-20T08:01:45;101963.38;;;12.65;52.60
46756;BME280;32506;52.826;-1.192;2022-09-20T08:04:11;101965.47;;;12.70;52.48
46756;BME280;32506;52.826;-1.192;2022-09-20T08:06:42;101965.06;;;12.73;52.71
46756;BME280;32506;52.826;-1.192;2022-09-20T08:09:08;101962.84;;;12.76;52.50
46756;BME280;32506;52.826;-1.192;2022-09-20T08:11:34;101964.31;;;12.79;52.52
46756;BME280;32506;52.826;-1.192;2022-09-20T08:14:00;101961.06;;;12.84;52.46
46756;BME280;32506;52.826;-1.192;2022-09-20T08:16:27;101959.66;;;12.88;52.69
46756;BME280;32506;52.826;-1.192;2022-09-20T08:18:55;101969.59;;;12.94;52.90
46756;BME280;32506;52.826;-1.192;2022-09-20T08:21:22;101971.88;;;12.97;52.72
46756;BME280;32506;52.826;-1.192;2022-09-20T08:23:49;101966.75;;;13.02;52.63
46756;BME280;32506;52.826;-1.192;2022-09-20T08:26:17;101970.69;;;13.06;52.81
46756;BME280;32506;52.826;-1.192;2022-09-20T08:28:43;101976.31;;;13.12;53.08
46756;BME280;32506;52.826;-1.192;2022-09-20T08:31:14;101967.03;;;13.14;53.34
46756;BME280;32506;52.826;-1.192;2022-09-20T08:33:41;101976.00;;;13.21;54.00
46756;BME280;32506;52.826;-1.192;2022-09-20T08:36:11;101980.75;;;13.26;53.02
46756;BME280;32506;52.826;-1.192;2022-09-20T08:38:36;101978.53;;;13.30;52.97
46756;BME280;32506;52.826;-1.192;2022-09-20T08:41:29;101978.38;;;13.38;53.24
46756;BME280;32506;52.826;-1.192;2022-09-20T08:46:41;101985.88;;;13.49;54.00
46756;BME280;32506;52.826;-1.192;2022-09-20T08:49:15;101978.88;;;13.55;53.93
46756;BME280;32506;52.826;-1.192;2022-09-20T08:51:41;101984.28;;;13.62;54.55
46756;BME280;32506;52.826;-1.192;2022-09-20T08:54:10;101982.28;;;13.70;54.95
46756;BME280;32506;52.826;-1.192;2022-09-20T08:56:41;101985.44;;;13.81;55.09
46756;BME280;32506;52.826;-1.192;2022-09-20T08:59:14;101984.84;;;13.92;55.58
46756;BME280;32506;52.826;-1.192;2022-09-20T09:01:40;101986.13;;;14.03;55.88
46756;BME280;32506;52.826;-1.192;2022-09-20T09:04:17;101984.34;;;14.17;56.29
46756;BME280;32506;52.826;-1.192;2022-09-20T09:06:44;101982.28;;;14.25;56.22
46756;BME280;32506;52.826;-1.192;2022-09-20T09:09:17;101979.81;;;14.37;56.32
46756;BME280;32506;52.826;-1.192;2022-09-20T09:11:44;101982.09;;;14.47;56.74
46756;BME280;32506;52.826;-1.192;2022-09-20T09:14:29;101986.91;;;14.58;56.51
46756;BME280;32506;52.826;-1.192;2022-09-20T09:17:24;101985.50;;;14.69;56.23
46756;BME280;32506;52.826;-1.192;2022-09-20T09:22:21;101985.50;;;14.89;56.29
46756;BME280;32506;52.826;-1.192;2022-09-20T09:25:26;101981.13;;;15.02;56.04
46756;BME280;32506;52.826;-1.192;2022-09-20T09:33:26;101987.50;;;15.34;56.55
46756;BME280;32506;52.826;-1.192;2022-09-20T09:38:34;101988.91;;;15.57;56.31
46756;BME280;32506;52.826;-1.192;2022-09-20T09:41:03;101988.22;;;15.68;56.65
46756;BME280;32506;52.826;-1.192;2022-09-20T09:43:36;101994.44;;;15.82;57.05
46756;BME280;32506;52.826;-1.192;2022-09-20T09:46:23;101989.59;;;15.98;56.63
46756;BME280;32506;52.826;-1.192;2022-09-20T09:49:25;101992.00;;;16.13;57.13
46756;BME280;32506;52.826;-1.192;2022-09-20T09:52:22;101990.09;;;16.26;57.13
46756;BME280;32506;52.826;-1.192;2022-09-20T09:54:58;101988.34;;;16.39;57.66
46756;BME280;32506;52.826;-1.192;2022-09-20T09:57:47;101987.22;;;16.53;59.66
46756;BME280;32506;52.826;-1.192;2022-09-20T10:00:20;101989.66;;;16.61;58.25
46756;BME280;32506;52.826;-1.192;2022-09-20T10:08:02;101984.03;;;16.88;57.90
46756;BME280;32506;52.826;-1.192;2022-09-20T10:19:09;101977.91;;;17.25;56.75
46756;BME280;32506;52.826;-1.192;2022-09-20T10:30:19;101979.22;;;17.59;55.30
46756;BME280;32506;52.826;-1.192;2022-09-20T10:32:49;101979.94;;;17.67;55.72
46756;BME280;32506;52.826;-1.192;2022-09-20T10:40:33;101978.84;;;17.93;54.72
46756;BME280;32506;52.826;-1.192;2022-09-20T10:43:29;101986.41;;;18.03;54.41
46756;BME280;32506;52.826;-1.192;2022-09-20T10:48:47;101976.44;;;18.15;53.52
46756;BME280;32506;52.826;-1.192;2022-09-20T10:57:48;101987.94;;;18.41;52.22
46756;BME280;32506;52.826;-1.192;2022-09-20T11:00:20;101979.72;;;18.48;51.21
46756;BME280;32506;52.826;-1.192;2022-09-20T11:08:19;101983.53;;;18.82;51.33
46756;BME280;32506;52.826;-1.192;2022-09-20T11:10:57;101977.94;;;18.95;49.67
46756;BME280;32506;52.826;-1.192;2022-09-20T11:14:08;101978.75;;;19.08;48.64
46756;BME280;32506;52.826;-1.192;2022-09-20T11:17:00;101974.88;;;19.16;47.85
46756;BME280;32506;52.826;-1.192;2022-09-20T11:19:34;101970.97;;;19.23;48.25
46756;BME280;32506;52.826;-1.192;2022-09-20T11:25:11;101969.44;;;19.39;46.53
46756;BME280;32506;52.826;-1.192;2022-09-20T11:27:50;101975.28;;;19.48;46.45
46756;BME280;32506;52.826;-1.192;2022-09-20T11:30:22;101970.34;;;19.57;46.33
46756;BME280;32506;52.826;-1.192;2022-09-20T11:32:51;101972.66;;;19.65;46.68
46756;BME280;32506;52.826;-1.192;2022-09-20T11:35:29;101975.59;;;19.75;47.41
46756;BME280;32506;52.826;-1.192;2022-09-20T11:40:37;101975.41;;;19.94;46.18
46756;BME280;32506;52.826;-1.192;2022-09-20T11:43:08;101966.91;;;20.02;45.43
46756;BME280;32506;52.826;-1.192;2022-09-20T11:45:34;101975.72;;;20.09;43.88
46756;BME280;32506;52.826;-1.192;2022-09-20T11:48:09;101978.84;;;20.18;44.84
46756;BME280;32506;52.826;-1.192;2022-09-20T11:50:59;101970.34;;;20.26;44.31
46756;BME280;32506;52.826;-1.192;2022-09-20T11:56:19;101974.13;;;20.42;43.01
46756;BME280;32506;52.826;-1.192;2022-09-20T11:58:51;101960.38;;;20.49;42.27
46756;BME280;32506;52.826;-1.192;2022-09-20T12:01:28;101966.75;;;20.55;41.62
46756;BME280;32506;52.826;-1.192;2022-09-20T12:06:43;101968.66;;;20.71;42.15
46756;BME280;32506;52.826;-1.192;2022-09-20T12:09:28;101960.69;;;20.82;41.49
46756;BME280;32506;52.826;-1.192;2022-09-20T12:11:55;101958.59;;;20.89;41.23
46756;BME280;32506;52.826;-1.192;2022-09-20T12:14:29;101952.75;;;20.97;41.22
46756;BME280;32506;52.826;-1.192;2022-09-20T12:16:56;101958.34;;;21.07;42.02
46756;BME280;32506;52.826;-1.192;2022-09-20T12:24:27;101956.53;;;21.35;41.50
46756;BME280;32506;52.826;-1.192;2022-09-20T12:27:01;101951.47;;;21.44;42.10
46756;BME280;32506;52.826;-1.192;2022-09-20T12:32:39;101950.31;;;21.57;40.09
46756;BME280;32506;52.826;-1.192;2022-09-20T12:38:24;101950.16;;;21.69;38.56
46756;BME280;32506;52.826;-1.192;2022-09-20T12:43:28;101952.75;;;21.81;39.40
46756;BME280;32506;52.826;-1.192;2022-09-20T12:45:55;101952.00;;;21.85;38.23
46756;BME280;32506;52.826;-1.192;2022-09-20T12:48:22;101954.19;;;21.88;37.41
46756;BME280;32506;52.826;-1.192;2022-09-20T12:51:15;101952.84;;;21.91;37.70
46756;BME280;32506;52.826;-1.192;2022-09-20T12:54:04;101954.78;;;21.90;36.81
46756;BME280;32506;52.826;-1.192;2022-09-20T12:56:35;101946.59;;;21.90;34.68
46756;BME280;32506;52.826;-1.192;2022-09-20T12:59:03;101950.13;;;21.91;35.42
46756;BME280;32506;52.826;-1.192;2022-09-20T13:01:35;101944.44;;;21.92;35.50
46756;BME280;32506;52.826;-1.192;2022-09-20T13:07:48;101943.38;;;21.93;36.66
46756;BME280;32506;52.826;-1.192;2022-09-20T13:10:25;101943.88;;;21.90;35.56
46756;BME280;32506;52.826;-1.192;2022-09-20T13:12:58;101936.22;;;21.87;35.50
46756;BME280;32506;52.826;-1.192;2022-09-20T13:15:26;101931.28;;;21.84;34.52
46756;BME280;32506;52.826;-1.192;2022-09-20T13:17:54;101936.41;;;21.81;34.36
46756;BME280;32506;52.826;-1.192;2022-09-20T13:20:23;101928.78;;;21.77;33.99
46756;BME280;32506;52.826;-1.192;2022-09-20T13:22:52;101937.44;;;21.74;33.81
46756;BME280;32506;52.826;-1.192;2022-09-20T13:25:18;101926.25;;;21.71;34.01
46756;BME280;32506;52.826;-1.192;2022-09-20T13:27:56;101927.56;;;21.68;33.98
46756;BME280;32506;52.826;-1.192;2022-09-20T13:30:26;101926.44;;;21.64;33.79
46756;BME280;32506;52.826;-1.192;2022-09-20T13:32:53;101935.69;;;21.63;34.48
46756;BME280;32506;52.826;-1.192;2022-09-20T13:35:20;101927.78;;;21.61;35.23
46756;BME280;32506;52.826;-1.192;2022-09-20T13:37:53;101936.19;;;21.60;35.10
46756;BME280;32506;52.826;-1.192;2022-09-20T13:40:24;101935.06;;;21.56;34.54
46756;BME280;32506;52.826;-1.192;2022-09-20T13:42:56;101932.00;;;21.52;34.33
46756;BME280;32506;52.826;-1.192;2022-09-20T13:45:24;101928.97;;;21.49;34.79
46756;BME280;32506;52.826;-1.192;2022-09-20T13:47:51;101933.03;;;21.46;34.32
46756;BME280;32506;52.826;-1.192;2022-09-20T13:50:26;101930.78;;;21.43;34.82
46756;BME280;32506;52.826;-1.192;2022-09-20T13:52:55;101931.88;;;21.42;35.25
46756;BME280;32506;52.826;-1.192;2022-09-20T13:55:34;101931.03;;;21.41;34.65
46756;BME280;32506;52.826;-1.192;2022-09-20T14:00:46;101941.28;;;21.34;35.50
46756;BME280;32506;52.826;-1.192;2022-09-20T14:03:16;101930.91;;;21.31;36.03
46756;BME280;32506;52.826;-1.192;2022-09-20T14:06:08;101933.88;;;21.29;35.67
46756;BME280;32506;52.826;-1.192;2022-09-20T14:08:39;101930.59;;;21.27;35.77
46756;BME280;32506;52.826;-1.192;2022-09-20T14:11:25;101933.59;;;21.26;35.28
46756;BME280;32506;52.826;-1.192;2022-09-20T14:13:57;101928.88;;;21.21;35.61
46756;BME280;32506;52.826;-1.192;2022-09-20T14:16:33;101935.66;;;21.19;35.93
46756;BME280;32506;52.826;-1.192;2022-09-20T14:19:01;101941.59;;;21.16;36.22
46756;BME280;32506;52.826;-1.192;2022-09-20T14:21:31;101939.94;;;21.15;36.71
46756;BME280;32506;52.826;-1.192;2022-09-20T14:23:59;101936.66;;;21.12;36.63
46756;BME280;32506;52.826;-1.192;2022-09-20T14:26:36;101937.72;;;21.11;36.86
46756;BME280;32506;52.826;-1.192;2022-09-20T14:31:56;101933.03;;;21.07;36.90
46756;BME280;32506;52.826;-1.192;2022-09-20T14:34:24;101931.41;;;21.06;37.19
46756;BME280;32506;52.826;-1.192;2022-09-20T14:36:50;101932.47;;;21.05;37.30
46756;BME280;32506;52.826;-1.192;2022-09-20T14:39:17;101930.03;;;21.03;37.40
46756;BME280;32506;52.826;-1.192;2022-09-20T14:41:45;101937.31;;;21.03;38.05
46756;BME280;32506;52.826;-1.192;2022-09-20T14:44:25;101935.44;;;21.03;38.12
46756;BME280;32506;52.826;-1.192;2022-09-20T14:46:55;101930.75;;;20.99;37.80
46756;BME280;32506;52.826;-1.192;2022-09-20T14:51:56;101935.03;;;20.94;38.06
46756;BME280;32506;52.826;-1.192;2022-09-20T14:54:39;101934.50;;;20.92;37.95
46756;BME280;32506;52.826;-1.192;2022-09-20T14:57:05;101936.38;;;20.92;38.21
46756;BME280;32506;52.826;-1.192;2022-09-20T14:59:41;101935.28;;;20.93;38.06
46756;BME280;32506;52.826;-1.192;2022-09-20T15:04:33;101930.69;;;20.93;38.27
46756;BME280;32506;52.826;-1.192;2022-09-20T15:07:05;101918.75;;;20.94;38.39
46756;BME280;32506;52.826;-1.192;2022-09-20T15:09:31;101923.09;;;20.95;38.61
46756;BME280;32506;52.826;-1.192;2022-09-20T15:12:12;101918.25;;;20.98;39.17
46756;BME280;32506;52.826;-1.192;2022-09-20T15:14:38;101918.25;;;20.98;39.11
46756;BME280;32506;52.826;-1.192;2022-09-20T15:17:06;101920.72;;;20.99;39.19
46756;BME280;32506;52.826;-1.192;2022-09-20T15:19:34;101913.38;;;21.00;39.40
46756;BME280;32506;52.826;-1.192;2022-09-20T15:21:59;101915.03;;;21.01;39.72
46756;BME280;32506;52.826;-1.192;2022-09-20T15:24:25;101915.03;;;21.01;39.88
46756;BME280;32506;52.826;-1.192;2022-09-20T15:26:50;101916.69;;;21.02;40.13
46756;BME280;32506;52.826;-1.192;2022-09-20T15:29:16;101914.78;;;21.02;39.99
46756;BME280;32506;52.826;-1.192;2022-09-20T15:31:43;101917.25;;;21.04;40.12
46756;BME280;32506;52.826;-1.192;2022-09-20T15:34:10;101911.81;;;21.04;40.21
46756;BME280;32506;52.826;-1.192;2022-09-20T15:36:38;101911.81;;;21.04;40.15
46756;BME280;32506;52.826;-1.192;2022-09-20T15:39:04;101901.78;;;21.04;40.19
46756;BME280;32506;52.826;-1.192;2022-09-20T15:41:30;101902.00;;;21.03;40.10
46756;BME280;32506;52.826;-1.192;2022-09-20T15:43:56;101913.72;;;21.03;40.14
46756;BME280;32506;52.826;-1.192;2022-09-20T15:46:24;101912.06;;;21.02;40.08
46756;BME280;32506;52.826;-1.192;2022-09-20T15:48:52;101909.34;;;21.02;40.02
46756;BME280;32506;52.826;-1.192;2022-09-20T15:51:17;101913.97;;;21.02;40.01
46756;BME280;32506;52.826;-1.192;2022-09-20T15:53:45;101909.59;;;21.01;40.18
46756;BME280;32506;52.826;-1.192;2022-09-20T15:56:16;101911.47;;;21.00;39.90
46756;BME280;32506;52.826;-1.192;2022-09-20T15:58:44;101913.38;;;21.00;39.97
46756;BME280;32506;52.826;-1.192;2022-09-20T16:01:11;101912.56;;;20.99;39.81
46756;BME280;32506;52.826;-1.192;2022-09-20T16:03:37;101918.25;;;20.98;39.90
46756;BME280;32506;52.826;-1.192;2022-09-20T16:06:05;101915.75;;;20.96;39.79
46756;BME280;32506;52.826;-1.192;2022-09-20T16:08:34;101914.16;;;20.95;39.76
46756;BME280;32506;52.826;-1.192;2022-09-20T16:11:01;101917.94;;;20.94;39.84
46756;BME280;32506;52.826;-1.192;2022-09-20T16:13:27;101917.09;;;20.93;40.00
46756;BME280;32506;52.826;-1.192;2022-09-20T16:15:57;101921.16;;;20.91;39.65
46756;BME280;32506;52.826;-1.192;2022-09-20T16:18:23;101916.78;;;20.90;39.46
46756;BME280;32506;52.826;-1.192;2022-09-20T16:21:12;101917.03;;;20.88;39.39
46756;BME280;32506;52.826;-1.192;2022-09-20T16:23:39;101919.97;;;20.87;39.62
46756;BME280;32506;52.826;-1.192;2022-09-20T16:26:05;101914.00;;;20.85;39.73
46756;BME280;32506;52.826;-1.192;2022-09-20T16:28:31;101920.50;;;20.84;39.75
46756;BME280;32506;52.826;-1.192;2022-09-20T16:30:58;101915.56;;;20.81;39.70
46756;BME280;32506;52.826;-1.192;2022-09-20T16:33:24;101915.81;;;20.79;39.76
46756;BME280;32506;52.826;-1.192;2022-09-20T16:35:49;101916.06;;;20.77;39.63
46756;BME280;32506;52.826;-1.192;2022-09-20T16:38:14;101912.75;;;20.75;39.70
46756;BME280;32506;52.826;-1.192;2022-09-20T16:40:40;101914.91;;;20.73;39.90
46756;BME280;32506;52.826;-1.192;2022-09-20T16:43:06;101918.13;;;20.70;39.85
46756;BME280;32506;52.826;-1.192;2022-09-20T16:45:33;101916.47;;;20.69;39.90
46756;BME280;32506;52.826;-1.192;2022-09-20T16:47:58;101912.31;;;20.67;39.85
46756;BME280;32506;52.826;-1.192;2022-09-20T16:50:27;101920.72;;;20.65;40.02
46756;BME280;32506;52.826;-1.192;2022-09-20T16:52:52;101926.66;;;20.62;39.90
46756;BME280;32506;52.826;-1.192;2022-09-20T16:55:18;101922.53;;;20.59;39.88
46756;BME280;32506;52.826;-1.192;2022-09-20T16:57:50;101924.69;;;20.57;39.71
46756;BME280;32506;52.826;-1.192;2022-09-20T17:00:16;101923.28;;;20.55;39.89
46756;BME280;32506;52.826;-1.192;2022-09-20T17:02:49;101922.72;;;20.53;40.02
46756;BME280;32506;52.826;-1.192;2022-09-20T17:05:15;101921.31;;;20.50;40.08
46756;BME280;32506;52.826;-1.192;2022-09-20T17:07:41;101924.28;;;20.49;40.02
46756;BME280;32506;52.826;-1.192;2022-09-20T17:10:08;101926.44;;;20.47;40.06
46756;BME280;32506;52.826;-1.192;2022-09-20T17:12:33;101923.38;;;20.43;40.14
46756;BME280;32506;52.826;-1.192;2022-09-20T17:15:05;101919.34;;;20.45;40.11
46756;BME280;32506;52.826;-1.192;2022-09-20T17:17:31;101920.81;;;20.36;40.36
46756;BME280;32506;52.826;-1.192;2022-09-20T17:19:58;101916.72;;;20.34;40.26
46756;BME280;32506;52.826;-1.192;2022-09-20T17:22:24;101922.38;;;20.32;40.42
46756;BME280;32506;52.826;-1.192;2022-09-20T17:24:49;101917.44;;;20.29;40.40
46756;BME280;32506;52.826;-1.192;2022-09-20T17:27:14;101924.19;;;20.26;40.42
46756;BME280;32506;52.826;-1.192;2022-09-20T17:29:40;101916.53;;;20.23;40.31